Time;durP1;ratioP1;P1;durP2;ratioP2;P2;SDS_P1;SDS_P2;PMS_P1;PMS_P2;Temp;Humidity;BMP_temperature;BMP_pressure;BME280_temperature;BME280_humidity;BME280_pressure;Samples;Min_cycle;Max_cycle;Signal;HPM_P1;HPM_P2
2021/03/20 00:01:46;;;;;;;6.18;2.92;;;2.20;67.60;;;;;;2313753;54;21443;-66
2021/03/20 00:04:14;;;;;;;7.95;4.07;;;2.10;67.50;;;;;;2344296;54;21039;-66
2021/03/20 00:06:44;;;;;;;7.93;4.20;;;2.10;67.40;;;;;;2562447;53;20991;-66
2021/03/20 00:09:12;;;;;;;6.47;3.75;;;2.20;67.60;;;;;;2324974;54;20961;-66
2021/03/20 00:11:39;;;;;;;6.53;3.70;;;2.10;67.60;;;;;;2589967;52;21024;-66
2021/03/20 00:14:06;;;;;;;8.65;4.30;;;2.10;67.70;;;;;;2347816;54;20951;-66
2021/03/20 00:16:32;;;;;;;8.32;4.50;;;2.10;67.80;;;;;;2343215;53;20956;-66
2021/03/20 00:18:59;;;;;;;6.50;3.92;;;2.10;67.80;;;;;;2343713;54;20956;-66
2021/03/20 00:21:25;;;;;;;7.53;4.05;;;2.10;67.80;;;;;;2590219;53;20953;-66
2021/03/20 00:23:52;;;;;;;7.18;3.92;;;2.10;67.70;;;;;;2346856;53;20955;-66
2021/03/20 00:26:18;;;;;;;7.55;3.37;;;2.10;67.70;;;;;;2589479;52;20963;-66
2021/03/20 00:28:45;;;;;;;7.18;3.97;;;2.10;67.60;;;;;;2342536;53;21509;-66
2021/03/20 00:31:11;;;;;;;6.43;3.25;;;2.10;67.60;;;;;;2343811;54;20991;-66
2021/03/20 00:33:38;;;;;;;5.68;2.70;;;2.10;67.50;;;;;;2350198;53;21675;-66
2021/03/20 00:36:05;;;;;;;6.53;3.60;;;2.10;67.60;;;;;;2350377;53;20989;-66
2021/03/20 00:38:33;;;;;;;6.47;3.00;;;2.00;67.40;;;;;;2576229;52;20963;-66
2021/03/20 00:40:59;;;;;;;7.03;3.30;;;2.00;67.40;;;;;;2343169;53;20960;-66
2021/03/20 00:43:26;;;;;;;8.07;3.37;;;2.00;67.30;;;;;;2343995;54;20929;-66
2021/03/20 00:45:53;;;;;;;8.52;3.42;;;2.00;68.00;;;;;;2590357;53;20937;-66
2021/03/20 00:48:23;;;;;;;6.40;3.03;;;2.00;67.90;;;;;;2590447;52;20953;-65
2021/03/20 00:50:50;;;;;;;6.60;2.80;;;2.00;67.20;;;;;;2590374;52;20944;-66
2021/03/20 00:53:16;;;;;;;5.72;2.40;;;1.90;67.10;;;;;;2343315;54;20932;-66
2021/03/20 00:55:43;;;;;;;5.55;2.45;;;1.90;67.10;;;;;;2347805;53;20907;-66
2021/03/20 00:59:10;;;;;;;4.47;2.15;;;1.90;67.10;;;;;;2330465;53;20971;-66
2021/03/20 01:01:36;;;;;;;4.85;2.17;;;1.90;66.80;;;;;;2589285;52;20971;-65
2021/03/20 01:04:03;;;;;;;5.07;2.08;;;1.90;67.20;;;;;;2343952;54;20935;-66
2021/03/20 01:06:29;;;;;;;4.87;2.17;;;1.90;67.30;;;;;;2590119;53;20964;-66
2021/03/20 01:08:57;;;;;;;6.60;2.45;;;1.80;67.20;;;;;;2341270;53;21471;-66
2021/03/20 01:11:25;;;;;;;5.47;2.55;;;1.80;67.30;;;;;;2347026;53;21007;-66
2021/03/20 01:13:52;;;;;;;4.87;2.10;;;1.80;67.30;;;;;;2349684;53;21071;-66
2021/03/20 01:16:18;;;;;;;5.00;2.47;;;1.80;67.20;;;;;;2583766;52;20975;-66
2021/03/20 01:18:45;;;;;;;4.65;2.10;;;1.80;67.10;;;;;;2343926;54;20948;-66
2021/03/20 01:21:12;;;;;;;6.20;3.10;;;1.80;67.20;;;;;;2589676;52;20992;-66
2021/03/20 01:23:38;;;;;;;6.62;2.90;;;1.80;67.20;;;;;;2334777;54;21008;-66
2021/03/20 01:26:05;;;;;;;8.27;3.28;;;1.70;67.00;;;;;;2587981;52;20932;-66
2021/03/20 01:28:32;;;;;;;5.80;2.95;;;1.70;66.90;;;;;;2344363;54;21004;-66
2021/03/20 01:30:59;;;;;;;7.07;3.33;;;1.70;67.00;;;;;;2347694;53;20940;-66
2021/03/20 01:33:34;;;;;;;5.70;3.08;;;1.70;67.00;;;;;;2343339;53;20936;-66
2021/03/20 01:36:34;;;;;;;6.00;2.53;;;1.70;67.10;;;;;;2588532;52;21059;-66
2021/03/20 01:39:00;;;;;;;6.00;2.90;;;1.60;67.00;;;;;;2343648;54;20960;-66
2021/03/20 01:41:27;;;;;;;7.18;2.80;;;1.60;67.10;;;;;;2590436;53;21698;-66
2021/03/20 01:43:53;;;;;;;5.80;2.55;;;1.60;67.10;;;;;;2586946;52;20972;-66
2021/03/20 01:46:43;;;;;;;6.20;2.75;;;1.60;67.20;;;;;;2346639;53;21396;-66
2021/03/20 01:49:48;;;;;;;4.78;2.35;;;1.60;67.10;;;;;;2590323;52;21064;-67
2021/03/20 01:52:31;;;;;;;6.43;2.80;;;1.60;67.00;;;;;;2590311;52;20959;-66
2021/03/20 01:55:14;;;;;;;5.75;2.45;;;1.60;67.00;;;;;;2348030;54;20964;-66
2021/03/20 01:57:46;;;;;;;5.00;2.22;;;1.50;66.90;;;;;;2577418;52;21012;-66
2021/03/20 02:00:16;;;;;;;5.37;2.45;;;1.50;67.10;;;;;;2347243;53;20967;-66
2021/03/20 02:02:42;;;;;;;5.93;2.30;;;1.50;67.10;;;;;;2343353;53;21307;-66
2021/03/20 02:05:13;;;;;;;5.25;2.47;;;1.50;67.10;;;;;;2354123;53;20996;-66
2021/03/20 02:07:39;;;;;;;4.72;2.08;;;1.50;67.10;;;;;;2339462;53;20983;-66
2021/03/20 02:10:08;;;;;;;3.92;1.98;;;1.50;67.10;;;;;;2585653;52;21044;-66
2021/03/20 02:12:35;;;;;;;4.50;1.85;;;1.40;67.00;;;;;;2588636;52;20973;-66
2021/03/20 02:15:15;;;;;;;6.10;2.47;;;1.40;67.10;;;;;;2324815;53;21020;-66
2021/03/20 02:18:04;;;;;;;5.82;2.17;;;1.40;67.00;;;;;;2583740;53;21075;-66
2021/03/20 02:22:03;;;;;;;4.57;1.90;;;1.40;67.00;;;;;;2582291;52;21084;-66
2021/03/20 02:29:59;;;;;;;3.95;1.60;;;1.40;67.00;;;;;;2343716;54;20941;-66
2021/03/20 02:34:28;;;;;;;4.68;1.80;;;1.40;66.80;;;;;;2327191;55;20980;-66
2021/03/20 02:37:18;;;;;;;3.65;1.30;;;1.30;66.40;;;;;;2589212;52;21453;-66
2021/03/20 02:40:05;;;;;;;3.97;1.87;;;1.20;66.60;;;;;;2580165;52;20982;-66
2021/03/20 02:43:09;;;;;;;4.32;2.10;;;1.20;66.70;;;;;;2590306;52;21799;-66
2021/03/20 02:45:52;;;;;;;3.70;1.98;;;1.20;66.70;;;;;;2344078;54;20924;-66
2021/03/20 02:48:42;;;;;;;6.37;2.47;;;1.20;66.80;;;;;;2347968;53;21054;-66
2021/03/20 02:52:31;;;;;;;4.95;2.37;;;1.10;66.70;;;;;;2345864;53;21896;-65
2021/03/20 02:55:07;;;;;;;6.37;2.53;;;1.10;66.80;;;;;;2350670;53;20963;-66
2021/03/20 02:57:37;;;;;;;8.15;3.08;;;1.10;66.80;;;;;;2585694;52;20943;-66
2021/03/20 03:00:28;;;;;;;7.25;2.90;;;1.00;66.80;;;;;;2335215;53;20931;-66
2021/03/20 03:02:55;;;;;;;5.95;2.72;;;1.00;66.80;;;;;;2586563;52;20932;-66
2021/03/20 03:05:27;;;;;;;6.25;2.75;;;1.00;66.90;;;;;;2345838;53;21456;-65
2021/03/20 03:08:15;;;;;;;5.93;2.97;;;1.00;67.00;;;;;;2583888;52;21826;-66
2021/03/20 03:10:56;;;;;;;5.85;2.83;;;1.00;66.80;;;;;;2590033;53;20975;-66
2021/03/20 03:13:25;;;;;;;5.97;3.10;;;1.00;66.90;;;;;;2590885;52;20969;-66
2021/03/20 03:16:02;;;;;;;7.20;3.15;;;0.90;66.80;;;;;;2582639;52;21739;-66
2021/03/20 03:18:32;;;;;;;6.07;3.00;;;0.90;66.80;;;;;;2320263;55;20972;-66
2021/03/20 03:20:59;;;;;;;5.90;2.95;;;0.90;66.90;;;;;;2584799;52;20936;-65
2021/03/20 03:23:29;;;;;;;5.57;2.70;;;0.90;66.90;;;;;;2590031;53;21784;-66
2021/03/20 03:32:47;;;;;;;7.45;3.20;;;0.90;67.70;;;;;;2344927;53;21315;-66
2021/03/20 03:35:36;;;;;;;8.02;2.72;;;0.90;66.60;;;;;;2344150;53;21031;-65
2021/03/20 03:41:05;;;;;;;9.00;3.20;;;0.90;66.90;;;;;;2345352;54;20933;-66
2021/03/20 03:43:31;;;;;;;7.30;3.12;;;0.90;67.20;;;;;;2590998;52;20969;-65
2021/03/20 03:45:57;;;;;;;7.12;2.85;;;0.90;67.30;;;;;;2576362;52;20955;-66
2021/03/20 03:48:24;;;;;;;9.23;3.40;;;0.90;67.40;;;;;;2344391;53;20992;-65
2021/03/20 03:50:50;;;;;;;10.02;3.80;;;0.80;67.40;;;;;;2347687;53;21447;-66
2021/03/20 03:53:20;;;;;;;6.62;3.22;;;0.80;67.50;;;;;;2342100;53;20960;-66
2021/03/20 03:55:46;;;;;;;8.23;3.45;;;0.90;67.70;;;;;;2590472;52;20970;-66
2021/03/20 04:01:13;;;;;;;7.35;3.17;;;0.90;67.80;;;;;;2335029;53;20951;-66
2021/03/20 04:04:28;;;;;;;6.43;2.97;;;0.90;67.50;;;;;;2347394;53;20945;-65
2021/03/20 04:09:50;;;;;;;6.25;3.25;;;0.90;67.80;;;;;;2343886;54;21003;-65
2021/03/20 04:12:23;;;;;;;7.47;3.50;;;1.00;67.90;;;;;;2348334;53;21502;-65
2021/03/20 04:14:58;;;;;;;6.55;3.37;;;1.00;68.50;;;;;;2328667;53;20970;-65
2021/03/20 04:17:53;;;;;;;8.20;3.67;;;1.10;68.80;;;;;;2584385;52;20894;-66
2021/03/20 04:20:26;;;;;;;8.68;4.28;;;1.10;69.00;;;;;;2327968;53;21015;-65
2021/03/20 04:23:05;;;;;;;7.78;4.28;;;1.10;69.10;;;;;;2344284;54;20950;-66
2021/03/20 04:35:33;;;;;;;7.78;4.32;;;1.20;69.30;;;;;;2591016;52;20940;-65
2021/03/20 04:38:00;;;;;;;7.18;3.37;;;1.20;69.40;;;;;;2344065;54;21060;-65
2021/03/20 04:40:56;;;;;;;8.65;4.82;;;1.50;69.20;;;;;;2347039;54;21340;-65
2021/03/20 04:43:26;;;;;;;10.43;4.53;;;1.50;69.20;;;;;;2343486;53;21448;-65
2021/03/20 04:45:59;;;;;;;8.65;4.75;;;1.50;69.40;;;;;;2343666;54;21011;-65
2021/03/20 04:48:36;;;;;;;11.50;4.62;;;1.60;69.50;;;;;;2343865;54;20906;-65
2021/03/20 04:51:09;;;;;;;10.52;5.28;;;1.60;69.50;;;;;;2343572;53;21715;-66
2021/03/20 04:53:35;;;;;;;8.60;4.47;;;1.60;69.50;;;;;;2586415;52;21039;-65
2021/03/20 04:56:05;;;;;;;9.23;5.05;;;1.70;69.60;;;;;;2336360;53;21642;-66
2021/03/20 05:01:05;;;;;;;9.30;4.80;;;1.70;69.60;;;;;;2343978;54;20944;-65
2021/03/20 05:03:42;;;;;;;9.60;4.95;;;1.70;69.20;;;;;;2344328;54;20944;-65
2021/03/20 05:06:09;;;;;;;11.00;5.15;;;1.80;69.10;;;;;;2347277;53;20930;-65
2021/03/20 05:08:48;;;;;;;9.63;5.10;;;1.80;69.00;;;;;;2590018;53;21060;-65
2021/03/20 05:11:39;;;;;;;10.88;4.43;;;1.80;68.80;;;;;;2347149;53;20983;-65
2021/03/20 05:16:07;;;;;;;10.88;5.12;;;1.80;68.40;;;;;;2590838;52;20944;-65
2021/03/20 05:18:33;;;;;;;11.30;6.00;;;1.80;68.20;;;;;;2590277;52;21370;-65
2021/03/20 05:20:59;;;;;;;12.85;6.40;;;1.80;67.90;;;;;;2342973;53;20972;-65
2021/03/20 05:23:26;;;;;;;10.73;6.18;;;1.70;67.90;;;;;;2590038;53;20948;-65
2021/03/20 05:25:52;;;;;;;13.23;6.00;;;1.70;67.80;;;;;;2343333;53;21079;-65
2021/03/20 05:28:19;;;;;;;10.95;5.80;;;1.70;67.90;;;;;;2344036;54;20928;-66
2021/03/20 05:30:45;;;;;;;10.65;5.55;;;1.70;67.90;;;;;;2343413;53;20964;-66
2021/03/20 05:33:13;;;;;;;9.45;5.82;;;1.70;68.00;;;;;;2347001;53;20987;-71
2021/03/20 05:35:39;;;;;;;9.98;5.30;;;1.60;67.90;;;;;;2346768;53;20979;-66
2021/03/20 05:38:06;;;;;;;11.10;5.60;;;1.70;68.00;;;;;;2329585;53;20942;-65
2021/03/20 05:40:32;;;;;;;10.70;5.55;;;1.70;68.00;;;;;;2588917;52;20972;-65
2021/03/20 05:48:09;;;;;;;9.88;5.00;;;1.70;68.00;;;;;;2347018;53;21060;-65
2021/03/20 05:57:18;;;;;;;9.43;4.72;;;1.60;67.90;;;;;;2343869;54;20948;-67
2021/03/20 06:00:08;;;;;;;9.93;4.82;;;1.60;67.10;;;;;;2590337;52;21843;-65
2021/03/20 06:03:07;;;;;;;9.68;4.75;;;1.60;67.20;;;;;;2347141;53;20935;-65
2021/03/20 06:05:53;;;;;;;10.32;5.05;;;1.50;67.10;;;;;;2346849;53;20959;-65
2021/03/20 06:13:18;;;;;;;11.70;5.30;;;1.50;67.30;;;;;;2323964;54;20968;-65
2021/03/20 06:17:02;;;;;;;9.35;4.97;;;1.40;66.90;;;;;;2344474;53;21011;-65
2021/03/20 06:20:09;;;;;;;10.00;5.28;;;1.40;67.20;;;;;;2344835;53;20936;-65
2021/03/20 06:24:38;;;;;;;12.45;6.15;;;1.40;67.60;;;;;;2347553;53;20978;-65
2021/03/20 06:27:04;;;;;;;12.35;4.75;;;1.40;67.90;;;;;;2342922;54;20956;-65
2021/03/20 06:29:35;;;;;;;10.93;5.85;;;1.40;68.10;;;;;;2343805;54;20968;-65
2021/03/20 06:32:49;;;;;;;11.00;5.90;;;1.40;68.30;;;;;;2346551;53;21440;-65
2021/03/20 06:38:33;;;;;;;11.15;5.60;;;1.40;68.60;;;;;;2345396;53;21014;-65
2021/03/20 06:41:16;;;;;;;9.20;5.57;;;1.70;70.30;;;;;;2584454;52;21015;-66
2021/03/20 06:43:48;;;;;;;9.82;5.43;;;1.90;71.40;;;;;;2588908;52;20972;-65
2021/03/20 06:46:17;;;;;;;10.93;5.90;;;2.00;71.40;;;;;;2582864;52;21763;-65
2021/03/20 06:48:47;;;;;;;11.40;5.32;;;2.10;71.10;;;;;;2590781;52;20956;-66
2021/03/20 06:51:13;;;;;;;11.73;4.97;;;2.20;71.50;;;;;;2340224;53;21020;-66
2021/03/20 06:54:48;;;;;;;8.05;4.18;;;2.20;70.40;;;;;;2344212;54;21452;-65
2021/03/20 06:57:16;;;;;;;8.65;4.37;;;2.20;70.10;;;;;;2590240;53;20936;-65
2021/03/20 06:59:42;;;;;;;9.77;4.70;;;2.30;69.90;;;;;;2342173;54;20957;-66
2021/03/20 07:02:19;;;;;;;8.02;3.90;;;2.30;69.80;;;;;;2345930;54;21011;-65
2021/03/20 07:05:09;;;;;;;8.18;3.62;;;2.30;69.70;;;;;;2573073;52;20968;-65
2021/03/20 07:09:09;;;;;;;5.87;3.28;;;2.40;69.70;;;;;;2588942;53;21410;-65
2021/03/20 07:14:59;;;;;;;;;;;2.40;69.60;;;;;;2596887;53;21088;-66
2021/03/20 07:17:35;;;;;;;8.50;4.22;;;2.40;69.00;;;;;;2571822;52;20100;-65
2021/03/20 07:20:13;;;;;;;8.23;3.90;;;2.50;69.60;;;;;;2331384;53;21059;-65
2021/03/20 07:22:44;;;;;;;7.97;4.43;;;2.50;69.60;;;;;;2347276;53;21513;-66
2021/03/20 07:25:32;;;;;;;9.88;4.65;;;2.50;69.80;;;;;;2575263;53;20940;-66
2021/03/20 07:28:18;;;;;;;8.25;4.53;;;2.50;69.90;;;;;;2586967;52;21013;-66
2021/03/20 07:33:06;;;;;;;8.35;4.90;;;2.60;70.30;;;;;;2351005;53;20927;-65
2021/03/20 07:35:34;;;;;;;8.98;4.80;;;2.70;70.50;;;;;;2588636;53;20982;-65
2021/03/20 07:38:17;;;;;;;12.07;6.28;;;2.80;71.30;;;;;;2346878;53;20932;-65
2021/03/20 07:40:49;;;;;;;10.68;5.95;;;2.90;71.70;;;;;;2561972;53;20956;-66
2021/03/20 07:43:20;;;;;;;8.70;5.32;;;3.00;71.90;;;;;;2343930;53;20994;-66
2021/03/20 07:45:52;;;;;;;8.90;5.40;;;3.10;72.10;;;;;;2318267;54;20956;-66
2021/03/20 07:48:27;;;;;;;9.75;5.60;;;3.20;72.20;;;;;;2354732;53;21782;-66
2021/03/20 07:51:27;;;;;;;10.05;5.75;;;3.30;72.30;;;;;;2581893;52;21000;-66
2021/03/20 07:53:53;;;;;;;9.00;5.85;;;3.50;72.10;;;;;;2590348;52;20949;-66
2021/03/20 07:56:36;;;;;;;9.27;5.43;;;3.60;72.80;;;;;;2586295;52;21420;-65
2021/03/20 08:02:05;;;;;;;10.98;6.20;;;3.70;73.00;;;;;;2590259;52;20933;-65
2021/03/20 08:05:32;;;;;;;9.23;5.12;;;3.80;73.30;;;;;;2590754;52;21329;-65
2021/03/20 08:08:20;;;;;;;9.20;5.05;;;4.10;73.30;;;;;;2351256;53;20961;-65
2021/03/20 08:10:52;;;;;;;11.20;5.90;;;4.30;73.30;;;;;;2555109;53;21000;-65
2021/03/20 08:15:13;;;;;;;12.20;6.97;;;4.40;73.40;;;;;;2353391;53;20987;-65
2021/03/20 08:17:40;;;;;;;13.18;7.97;;;4.60;72.70;;;;;;2590074;52;20975;-66
2021/03/20 08:20:16;;;;;;;15.10;8.73;;;4.70;73.80;;;;;;2337979;53;20945;-65
2021/03/20 08:22:55;;;;;;;13.27;8.50;;;4.90;74.30;;;;;;2589387;53;20892;-66
2021/03/20 08:25:59;;;;;;;12.48;8.00;;;5.00;74.80;;;;;;2342434;54;22256;-66
2021/03/20 08:32:00;;;;;;;13.23;8.02;;;5.30;75.20;;;;;;2586039;52;21583;-65
2021/03/20 08:36:05;;;;;;;10.25;6.62;;;5.90;74.10;;;;;;2345665;54;21559;-66
2021/03/20 08:43:15;;;;;;;8.50;5.30;;;6.30;73.90;;;;;;2590412;52;20944;-66
2021/03/20 08:46:18;;;;;;;8.52;4.93;;;6.70;73.90;;;;;;2344180;54;21024;-66
2021/03/20 08:49:16;;;;;;;6.85;4.70;;;7.40;75.20;;;;;;2343778;53;21611;-66
2021/03/20 08:52:05;;;;;;;8.30;5.03;;;7.70;75.20;;;;;;2583738;52;21029;-66
2021/03/20 08:56:10;;;;;;;7.80;5.80;;;8.00;76.40;;;;;;2316990;54;21021;-66
2021/03/20 08:58:56;;;;;;;7.72;5.03;;;8.30;77.40;;;;;;2349715;53;21009;-66
2021/03/20 09:01:42;;;;;;;9.25;5.57;;;8.70;76.30;;;;;;2576488;52;20970;-66
2021/03/20 09:04:23;;;;;;;8.05;5.55;;;8.90;76.40;;;;;;2572491;52;21791;-66
2021/03/20 09:06:59;;;;;;;8.25;5.15;;;9.10;76.20;;;;;;2577615;52;21777;-66
2021/03/20 09:09:35;;;;;;;9.65;6.03;;;9.30;74.50;;;;;;2343156;54;20967;-66
2021/03/20 09:12:49;;;;;;;9.40;6.00;;;9.30;71.90;;;;;;2323884;54;20983;-66
2021/03/20 09:15:27;;;;;;;7.95;4.80;;;9.20;69.00;;;;;;2343357;53;20976;-66
2021/03/20 09:17:54;;;;;;;9.63;5.60;;;9.10;69.30;;;;;;2577097;53;21024;-66
2021/03/20 09:20:44;;;;;;;7.20;4.85;;;9.00;69.60;;;;;;2350967;53;21020;-66
2021/03/20 09:23:24;;;;;;;7.10;4.75;;;8.90;68.40;;;;;;2340229;54;20991;-66
2021/03/20 09:25:57;;;;;;;7.82;4.47;;;8.80;68.00;;;;;;2343577;54;21003;-66
2021/03/20 09:28:29;;;;;;;8.02;4.85;;;8.70;68.10;;;;;;2346523;53;21865;-67
2021/03/20 09:31:00;;;;;;;7.35;4.80;;;8.50;68.00;;;;;;2590023;52;20988;-66
2021/03/20 09:33:33;;;;;;;7.43;5.07;;;8.40;67.80;;;;;;2585084;52;20983;-66
2021/03/20 09:36:51;;;;;;;7.10;4.72;;;8.30;67.60;;;;;;2334646;53;21466;-66
2021/03/20 09:39:50;;;;;;;7.45;4.12;;;8.20;67.80;;;;;;2341851;53;20951;-66
2021/03/20 09:42:54;;;;;;;6.57;4.32;;;8.00;67.50;;;;;;2407055;55;21006;-82
2021/03/20 10:05:51;;;;;;;;;;;;;;;;;;;;;
2021/03/20 10:22:58;;;;;;;;;;;;;;;;;;;;;
2021/03/20 11:23:51;;;;;;;4.65;2.67;;;11.10;70.50;;;;;;2072232;57;7224157;-81
2021/03/20 11:27:10;;;;;;;3.12;1.77;;;12.00;68.10;;;;;;2201404;57;21028;-82
2021/03/20 11:30:39;;;;;;;4.68;2.37;;;11.90;66.00;;;;;;2175393;58;21967;-81
2021/03/20 11:56:51;;;;;;;;;;;;;;;;;;;;;
2021/03/20 12:00:56;;;;;;;3.90;2.28;;;12.10;68.30;;;;;;2421609;55;21001;-83
2021/03/20 12:29:54;;;;;;;3.55;2.20;;;12.60;68.70;;;;;;2416157;56;20997;-81
2021/03/20 12:33:46;;;;;;;;;;;;;;;;;;;;;
2021/03/20 13:16:43;;;;;;;4.53;2.00;;;12.00;64.50;;;;;;2258459;60;21026;-81
2021/03/20 13:26:50;;;;;;;5.25;2.20;;;11.90;67.30;;;;;;2211388;60;21041;-82
2021/03/20 13:30:25;;;;;;;3.65;2.15;;;11.90;65.10;;;;;;2261389;59;20983;-82
2021/03/20 14:15:25;;;;;;;2.85;1.30;;;11.80;65.70;;;;;;2416901;56;21044;-83
2021/03/20 14:23:02;;;;;;;3.03;1.40;;;11.00;66.40;;;;;;2194255;57;21052;-83
2021/03/20 14:29:43;;;;;;;;;;;;;;;;;;;;;
2021/03/20 14:54:52;;;;;;;;;;;;;;;;;;;;;
2021/03/20 14:58:05;;;;;;;2.75;1.27;;;11.00;64.20;;;;;;2325627;57;21739;-83
2021/03/20 15:15:29;;;;;;;;;;;;;;;;;;;;;
2021/03/20 15:18:33;;;;;;;2.90;1.40;;;11.00;64.30;;;;;;2094535;61;21071;-82
2021/03/20 15:22:08;;;;;;;;;;;;;;;;;;;;;
2021/03/20 15:38:35;;;;;;;2.37;1.20;;;10.80;63.40;;;;;;2087277;58;21027;-83
2021/03/20 16:20:28;;;;;;;;;;;;;;;;;;;;;
2021/03/20 17:52:45;;;;;;;;;;;;;;;;;;;;;
2021/03/20 20:03:46;;;;;;;8.60;4.10;;;6.80;67.10;;;;;;2510632;53;28304;-66
2021/03/20 20:06:13;;;;;;;7.00;3.35;;;7.00;65.90;;;;;;2479464;54;22053;-67
2021/03/20 20:08:40;;;;;;;8.82;3.25;;;7.10;65.90;;;;;;2243561;55;21032;-66
2021/03/20 20:11:06;;;;;;;7.05;3.00;;;7.30;65.20;;;;;;2233580;55;20928;-66
2021/03/20 20:13:33;;;;;;;5.72;2.92;;;7.30;65.10;;;;;;2251256;55;20980;-68
2021/03/20 20:16:02;;;;;;;6.60;2.80;;;7.40;65.10;;;;;;2463490;55;20957;-65
2021/03/20 20:18:32;;;;;;;6.25;2.80;;;7.40;65.00;;;;;;2231900;56;20975;-66
2021/03/20 20:20:58;;;;;;;5.60;2.05;;;7.40;65.00;;;;;;2453983;55;21019;-67
2021/03/20 20:23:27;;;;;;;5.47;1.92;;;7.40;65.00;;;;;;2234910;56;21103;-66
2021/03/20 20:25:56;;;;;;;5.22;2.50;;;7.40;65.10;;;;;;2453043;55;21496;-67
2021/03/20 20:28:24;;;;;;;3.92;1.95;;;7.30;65.10;;;;;;2445323;55;21087;-67
2021/03/20 20:30:53;;;;;;;3.92;1.83;;;7.30;65.10;;;;;;2461050;55;21000;-67
2021/03/20 20:33:20;;;;;;;3.80;1.83;;;7.30;65.10;;;;;;2479265;55;21538;-66
2021/03/20 20:35:46;;;;;;;3.95;1.60;;;7.30;65.20;;;;;;2481520;55;20989;-66
2021/03/20 20:38:14;;;;;;;3.12;1.67;;;7.30;65.40;;;;;;2485141;55;20968;-67
2021/03/20 20:40:40;;;;;;;4.40;1.83;;;7.20;65.50;;;;;;2482274;55;21509;-66
2021/03/20 20:43:15;;;;;;;3.92;1.70;;;7.20;65.60;;;;;;2483950;55;21213;-67
2021/03/20 20:45:58;;;;;;;4.37;1.80;;;7.20;65.40;;;;;;2466748;55;21029;-67
2021/03/20 20:48:25;;;;;;;2.83;1.55;;;7.20;65.40;;;;;;2485178;55;20972;-65
2021/03/20 20:50:55;;;;;;;3.40;1.90;;;7.20;65.90;;;;;;2287271;55;21397;-66
2021/03/20 20:53:22;;;;;;;3.72;2.05;;;7.20;65.70;;;;;;2245700;55;20988;-67
2021/03/20 20:55:51;;;;;;;4.00;2.05;;;7.20;65.90;;;;;;2478509;55;20940;-65
2021/03/20 20:58:17;;;;;;;4.32;1.92;;;7.20;65.80;;;;;;2256912;55;21024;-65
2021/03/20 21:00:44;;;;;;;3.90;1.90;;;7.10;66.20;;;;;;2253082;55;20953;-68
2021/03/20 21:03:12;;;;;;;3.30;1.50;;;7.10;66.00;;;;;;2256696;55;20941;-67
2021/03/20 21:05:39;;;;;;;3.75;1.87;;;7.10;66.10;;;;;;2247465;56;20987;-66
2021/03/20 21:08:05;;;;;;;4.80;2.30;;;7.10;66.10;;;;;;2240731;56;21052;-67
2021/03/20 21:10:32;;;;;;;4.72;2.17;;;7.10;66.10;;;;;;2265412;56;20953;-66
2021/03/20 21:13:00;;;;;;;4.85;2.40;;;7.10;66.10;;;;;;2286312;55;21047;-65
2021/03/20 21:15:28;;;;;;;6.40;2.55;;;7.10;66.10;;;;;;2287250;56;21098;-68
2021/03/20 21:17:55;;;;;;;5.25;2.53;;;7.10;66.10;;;;;;2287220;56;21002;-68
2021/03/20 21:20:25;;;;;;;5.20;2.17;;;7.10;66.80;;;;;;2281579;55;21855;-65
2021/03/20 21:22:51;;;;;;;3.92;1.98;;;7.10;66.10;;;;;;2273641;56;21006;-66
2021/03/20 21:25:19;;;;;;;4.35;1.80;;;7.10;66.20;;;;;;2484896;55;21007;-67
2021/03/20 21:27:55;;;;;;;3.78;1.83;;;7.10;66.10;;;;;;2273034;55;21008;-66
2021/03/20 21:30:22;;;;;;;3.45;1.75;;;7.10;66.10;;;;;;2252236;55;20947;-67
2021/03/20 21:32:50;;;;;;;4.07;1.90;;;7.10;66.10;;;;;;2283912;55;21838;-66
2021/03/20 21:35:17;;;;;;;4.25;2.20;;;7.10;66.10;;;;;;2287118;55;20990;-67
2021/03/20 21:37:43;;;;;;;4.55;2.22;;;7.00;65.90;;;;;;2520344;55;21181;-65
2021/03/20 21:40:15;;;;;;;6.03;2.95;;;7.00;65.90;;;;;;2279679;56;21076;-67
2021/03/20 21:42:42;;;;;;;3.95;1.95;;;7.00;65.70;;;;;;2460914;55;21018;-65
2021/03/20 21:45:09;;;;;;;5.37;2.20;;;7.00;65.80;;;;;;2488510;55;20932;-66
2021/03/20 21:47:36;;;;;;;5.65;2.35;;;7.00;66.00;;;;;;2518228;55;20979;-65
2021/03/20 21:50:04;;;;;;;4.57;2.12;;;7.00;66.00;;;;;;2497782;55;21018;-65
2021/03/20 21:52:30;;;;;;;4.82;2.35;;;7.00;65.80;;;;;;2518180;55;20959;-65
2021/03/20 21:55:10;;;;;;;7.15;3.00;;;6.90;65.70;;;;;;2268535;55;21026;-66
2021/03/20 21:57:37;;;;;;;8.18;4.25;;;6.90;65.70;;;;;;2512118;55;21039;-65
2021/03/20 22:00:04;;;;;;;7.55;4.55;;;6.90;65.80;;;;;;2505861;55;20935;-66
2021/03/20 22:02:31;;;;;;;6.00;3.60;;;6.90;65.70;;;;;;2507302;55;20966;-64
2021/03/20 22:04:57;;;;;;;6.50;3.67;;;6.90;65.80;;;;;;2278161;56;21046;-67
2021/03/20 22:07:26;;;;;;;4.97;2.70;;;6.90;65.80;;;;;;2287823;56;20963;-67
2021/03/20 22:09:56;;;;;;;4.28;2.12;;;6.90;65.90;;;;;;2278171;56;21034;-66
2021/03/20 22:12:22;;;;;;;4.22;2.50;;;6.90;66.00;;;;;;2282610;56;20999;-65
2021/03/20 22:14:48;;;;;;;3.53;1.98;;;6.90;66.10;;;;;;2287137;56;20955;-67
2021/03/20 22:17:15;;;;;;;3.87;1.92;;;6.90;66.20;;;;;;2496033;55;20978;-67
2021/03/20 22:19:41;;;;;;;3.58;1.98;;;6.80;66.20;;;;;;2496875;55;21022;-65
2021/03/20 22:22:13;;;;;;;4.30;2.12;;;6.80;66.20;;;;;;2285623;56;20970;-67
2021/03/20 22:24:39;;;;;;;5.18;2.10;;;6.80;66.20;;;;;;2287498;56;21057;-64
2021/03/20 22:27:07;;;;;;;3.50;1.85;;;6.80;66.00;;;;;;2520758;55;20923;-65
2021/03/20 22:29:36;;;;;;;3.67;2.10;;;6.80;66.00;;;;;;2287151;56;20942;-64
2021/03/20 22:32:03;;;;;;;5.05;2.58;;;6.80;66.10;;;;;;2493802;55;21117;-67
2021/03/20 22:34:29;;;;;;;4.28;2.35;;;6.80;66.10;;;;;;2288808;56;21045;-66
2021/03/20 22:36:56;;;;;;;5.07;2.47;;;6.80;66.00;;;;;;2496764;55;21022;-66
2021/03/20 22:39:22;;;;;;;4.53;2.40;;;6.80;66.00;;;;;;2520269;55;20958;-66
2021/03/20 22:41:48;;;;;;;3.92;1.95;;;6.80;65.90;;;;;;2288327;56;20983;-65
2021/03/20 22:44:14;;;;;;;4.60;2.40;;;6.70;65.90;;;;;;2289617;58;21554;-67
2021/03/20 22:46:40;;;;;;;4.60;2.30;;;6.70;65.90;;;;;;2289642;58;21066;-66
2021/03/20 22:49:07;;;;;;;4.22;2.12;;;6.70;65.80;;;;;;2279750;55;21338;-65
2021/03/20 22:51:33;;;;;;;4.00;2.30;;;6.70;65.90;;;;;;2287128;56;20946;-67
2021/03/20 22:53:59;;;;;;;4.90;2.55;;;6.70;65.90;;;;;;2521128;55;20955;-67
2021/03/20 22:56:27;;;;;;;4.95;2.28;;;6.60;65.90;;;;;;2520705;55;20935;-65
2021/03/20 22:58:56;;;;;;;4.30;2.30;;;6.70;66.00;;;;;;2494768;55;21561;-66
2021/03/20 23:01:24;;;;;;;4.07;2.00;;;6.70;66.00;;;;;;2520209;55;20966;-66
2021/03/20 23:03:52;;;;;;;3.80;1.87;;;6.70;66.00;;;;;;2286641;56;21790;-66
2021/03/20 23:06:22;;;;;;;3.90;1.98;;;6.70;66.10;;;;;;2271914;56;20986;-67
2021/03/20 23:08:51;;;;;;;3.70;2.05;;;6.60;65.70;;;;;;2284088;56;20967;-65
2021/03/20 23:11:26;;;;;;;3.85;1.92;;;6.70;66.00;;;;;;2286608;56;20935;-66
2021/03/20 23:13:52;;;;;;;3.85;1.70;;;6.60;65.90;;;;;;2286782;56;20974;-66
2021/03/20 23:16:34;;;;;;;4.32;2.35;;;6.70;66.10;;;;;;2285932;56;21054;-64
2021/03/20 23:19:01;;;;;;;3.90;2.08;;;6.70;65.50;;;;;;2520810;55;21510;-64
2021/03/20 23:21:28;;;;;;;3.83;2.05;;;6.60;65.90;;;;;;2286791;56;21820;-65
2021/03/20 23:23:55;;;;;;;5.03;2.28;;;6.60;66.00;;;;;;2286954;56;21038;-66
2021/03/20 23:26:31;;;;;;;5.60;2.58;;;6.60;66.00;;;;;;2521481;55;20947;-66
2021/03/20 23:28:58;;;;;;;4.75;2.55;;;6.60;65.80;;;;;;2286698;56;20975;-65
2021/03/20 23:31:24;;;;;;;6.80;2.25;;;6.60;66.00;;;;;;2284692;56;21086;-65
2021/03/20 23:33:50;;;;;;;4.75;2.40;;;6.60;65.90;;;;;;2268250;55;21564;-65
2021/03/20 23:36:16;;;;;;;5.10;2.20;;;6.60;65.90;;;;;;2275669;56;21863;-66
2021/03/20 23:38:43;;;;;;;4.22;2.37;;;6.60;65.80;;;;;;2494336;55;21014;-64
2021/03/20 23:41:09;;;;;;;4.57;2.45;;;6.50;65.70;;;;;;2285702;56;20987;-65
2021/03/20 23:43:35;;;;;;;5.35;2.72;;;6.50;65.80;;;;;;2272628;56;20950;-67
2021/03/20 23:46:02;;;;;;;5.80;2.75;;;6.50;65.90;;;;;;2286483;56;20983;-65
2021/03/20 23:48:28;;;;;;;6.45;2.70;;;6.50;65.90;;;;;;2286628;56;21450;-65
2021/03/20 23:50:55;;;;;;;5.43;2.33;;;6.50;66.00;;;;;;2494539;55;21047;-66
2021/03/20 23:53:21;;;;;;;3.67;1.70;;;6.50;66.00;;;;;;2287113;56;21001;-64
2021/03/20 23:55:49;;;;;;;4.43;2.10;;;6.40;65.90;;;;;;2271531;56;21014;-65
2021/03/20 23:58:17;;;;;;;4.25;2.20;;;6.40;66.00;;;;;;2273247;56;20954;-67
